createdAt,value
2022-12-03T00:00:40.090Z,2
2022-12-03T00:02:44.011Z,2
2022-12-03T00:04:47.685Z,2
2022-12-03T00:06:51.459Z,2.1
2022-12-03T00:08:55.266Z,2.1
2022-12-03T00:10:59.035Z,2.1
2022-12-03T00:13:05.748Z,2
2022-12-03T00:15:09.667Z,2
2022-12-03T00:17:13.327Z,2.1
2022-12-03T00:19:17.152Z,2.1
2022-12-03T00:21:20.910Z,2.1
2022-12-03T00:23:24.729Z,2
2022-12-03T00:25:28.636Z,2
2022-12-03T00:27:35.212Z,2
2022-12-03T00:29:39.030Z,2.1
2022-12-03T00:31:42.943Z,2
2022-12-03T00:34:12.639Z,2.1
2022-12-03T00:36:16.413Z,2.1
2022-12-03T00:40:26.979Z,2.1
2022-12-03T00:42:30.774Z,2.1
2022-12-03T00:44:34.481Z,2
2022-12-03T00:46:38.369Z,2
2022-12-03T00:48:42.050Z,2
2022-12-03T00:50:45.772Z,2.1
2022-12-03T00:52:49.582Z,2.1
2022-12-03T00:54:56.499Z,2.1
2022-12-03T00:57:00.126Z,2.1
2022-12-03T00:59:03.868Z,2.1
2022-12-03T01:01:07.663Z,2.1
2022-12-03T01:03:11.483Z,2.1
2022-12-03T01:05:15.410Z,2.1
2022-12-03T01:07:19.085Z,2.1
2022-12-03T01:09:25.777Z,2.1
2022-12-03T01:11:29.574Z,2.1
2022-12-03T01:13:33.268Z,2.1
2022-12-03T01:15:37.112Z,2.1
2022-12-03T01:17:40.866Z,2.1
2022-12-03T01:19:48.255Z,2.2
2022-12-03T01:21:48.382Z,2.1
2022-12-03T01:23:55.020Z,2.1
2022-12-03T01:28:02.576Z,2.2
2022-12-03T01:29:05.928Z,2.2
2022-12-03T01:31:09.655Z,2.1
2022-12-03T01:33:13.434Z,2.1
2022-12-03T01:35:17.225Z,2.1
2022-12-03T01:37:23.937Z,2.1
2022-12-03T01:39:27.748Z,2.2
2022-12-03T01:41:31.544Z,2.2
2022-12-03T01:43:35.245Z,2.2
2022-12-03T01:45:38.913Z,2.2
2022-12-03T01:47:42.638Z,2.2
2022-12-03T01:49:46.433Z,2.2
2022-12-03T01:51:53.083Z,2.2
2022-12-03T01:53:56.866Z,2.2
2022-12-03T01:56:00.689Z,2.2
2022-12-03T01:58:04.462Z,2.2
2022-12-03T02:00:08.282Z,2.2
2022-12-03T02:02:12.124Z,2.3
2022-12-03T02:04:15.975Z,2.3
2022-12-03T02:06:22.603Z,2.3
2022-12-03T02:08:26.387Z,2.3
2022-12-03T02:10:30.206Z,2.3
2022-12-03T02:12:33.938Z,2.2
2022-12-03T02:14:37.736Z,2.3
2022-12-03T02:16:41.617Z,2.3
2022-12-03T02:18:45.319Z,2.3
2022-12-03T02:22:55.830Z,2.2
2022-12-03T02:24:59.563Z,2.3
2022-12-03T02:26:02.888Z,2.3
2022-12-03T02:28:06.701Z,2.3
2022-12-03T02:30:10.519Z,2.2
2022-12-03T02:32:14.324Z,2.3
2022-12-03T02:34:21.047Z,2.3
2022-12-03T02:36:24.856Z,2.3
2022-12-03T02:38:28.659Z,2.3
2022-12-03T02:40:32.377Z,2.3
2022-12-03T02:42:36.176Z,2.3
2022-12-03T02:44:39.959Z,2.3
2022-12-03T02:46:43.879Z,2.3
2022-12-03T02:48:50.538Z,2.3
2022-12-03T02:50:54.353Z,2.3
2022-12-03T02:52:58.170Z,2.3
2022-12-03T02:55:01.944Z,2.3
2022-12-03T02:57:05.756Z,2.3
2022-12-03T02:59:09.557Z,2.3
2022-12-03T03:05:23.816Z,2.4
2022-12-03T03:07:27.689Z,2.4
2022-12-03T03:11:35.210Z,2.3
2022-12-03T03:13:39.022Z,2.4
2022-12-03T03:15:42.706Z,2.3
2022-12-03T03:19:53.242Z,2.3
2022-12-03T03:23:00.373Z,2.4
2022-12-03T03:25:04.193Z,2.4
2022-12-03T03:27:08.000Z,2.4
2022-12-03T03:29:11.789Z,2.3
2022-12-03T03:31:18.449Z,2.3
2022-12-03T03:33:22.108Z,2.3
2022-12-03T03:35:25.797Z,2.3
2022-12-03T03:37:29.500Z,2.3
2022-12-03T03:39:33.364Z,2.3
2022-12-03T03:41:37.125Z,2.2
2022-12-03T03:43:40.852Z,2.3
2022-12-03T03:45:47.661Z,2.3
2022-12-03T03:47:51.350Z,2.3
2022-12-03T03:49:55.156Z,2.3
2022-12-03T03:51:58.986Z,2.3
2022-12-03T03:54:02.766Z,2.3
2022-12-03T03:56:07.956Z,2.3
2022-12-03T03:58:11.637Z,2.2
2022-12-03T04:00:18.410Z,2.3
2022-12-03T04:02:22.196Z,2.3
2022-12-03T04:04:26.044Z,2.3
2022-12-03T04:18:55.556Z,2.1
2022-12-03T04:21:19.358Z,2.1
2022-12-03T04:25:26.957Z,2.2
2022-12-03T04:27:33.639Z,2.2
2022-12-03T04:29:37.495Z,2.2
2022-12-03T04:31:41.289Z,2.2
2022-12-03T04:33:45.079Z,2.2
2022-12-03T04:35:48.923Z,2.2
2022-12-03T04:37:52.696Z,2.1
2022-12-03T04:39:56.496Z,2.1
2022-12-03T04:42:03.216Z,2.1
2022-12-03T04:44:06.910Z,2.1
2022-12-03T04:46:10.759Z,2.1
2022-12-03T04:48:14.428Z,2.1
2022-12-03T04:50:18.239Z,2.1
2022-12-03T04:52:22.105Z,2.1
2022-12-03T04:54:25.848Z,2
2022-12-03T04:56:32.499Z,2.1
2022-12-03T05:02:43.904Z,2.1
2022-12-03T05:04:47.668Z,2.1
2022-12-03T05:08:55.257Z,2
2022-12-03T05:11:02.019Z,2.1
2022-12-03T05:13:05.786Z,2.1
2022-12-03T05:15:09.602Z,2.1
2022-12-03T05:16:13.000Z,2
2022-12-03T05:18:16.653Z,2.1
2022-12-03T05:20:20.467Z,2.1
2022-12-03T05:22:24.281Z,2
2022-12-03T05:24:30.945Z,2.1
2022-12-03T05:26:34.764Z,2.1
2022-12-03T05:28:38.465Z,2.1
2022-12-03T05:30:42.368Z,2.1
2022-12-03T05:32:46.088Z,2.1
2022-12-03T05:34:49.900Z,2
2022-12-03T05:36:53.665Z,2.1
2022-12-03T05:39:00.382Z,2
2022-12-03T05:41:04.166Z,2
2022-12-03T05:43:07.963Z,2
2022-12-03T05:45:11.747Z,1.9
2022-12-03T05:47:15.533Z,2
2022-12-03T05:49:19.343Z,1.9
2022-12-03T05:51:23.141Z,2
2022-12-03T05:53:29.820Z,1.9
2022-12-03T05:55:33.629Z,1.9
2022-12-03T05:57:37.420Z,1.9
2022-12-03T05:59:41.236Z,1.9
2022-12-03T06:01:45.010Z,1.8
2022-12-03T06:03:48.910Z,1.9
2022-12-03T06:05:52.626Z,1.9
2022-12-03T06:07:59.412Z,1.8
2022-12-03T06:10:03.127Z,1.8
2022-12-03T06:12:06.907Z,1.8
2022-12-03T06:15:14.021Z,1.9
2022-12-03T06:21:28.247Z,1.7
2022-12-03T06:23:31.988Z,1.8
2022-12-03T06:25:35.794Z,1.8
2022-12-03T06:27:39.574Z,1.8
2022-12-03T06:29:43.394Z,1.8
2022-12-03T06:31:47.196Z,1.8
2022-12-03T06:33:50.920Z,1.7
2022-12-03T06:35:57.617Z,1.7
2022-12-03T06:38:01.413Z,1.7
2022-12-03T06:40:05.187Z,1.7
2022-12-03T06:42:08.854Z,1.7
2022-12-03T06:44:12.662Z,1.7
2022-12-03T06:48:20.214Z,1.7
2022-12-03T06:50:26.929Z,1.7
2022-12-03T06:52:30.713Z,1.7
2022-12-03T06:54:34.477Z,1.7
2022-12-03T06:56:44.959Z,1.7
2022-12-03T06:58:42.069Z,1.6
2022-12-03T07:00:45.867Z,1.6
2022-12-03T07:02:49.665Z,1.6
2022-12-03T07:04:56.475Z,1.6
2022-12-03T07:07:00.143Z,1.6
2022-12-03T07:09:03.895Z,1.7
2022-12-03T07:10:07.286Z,1.7
2022-12-03T07:12:11.025Z,1.7
2022-12-03T07:14:14.802Z,1.6
2022-12-03T07:16:18.791Z,1.7
2022-12-03T07:18:25.314Z,1.7
2022-12-03T07:20:29.146Z,1.7
2022-12-03T07:22:32.849Z,1.7
2022-12-03T07:24:36.640Z,1.7
2022-12-03T07:30:47.952Z,1.6
2022-12-03T07:32:54.653Z,1.6
2022-12-03T07:34:58.437Z,1.7
2022-12-03T07:37:02.252Z,1.6
2022-12-03T07:39:06.024Z,1.6
2022-12-03T07:41:09.784Z,1.6
2022-12-03T07:43:13.584Z,1.6
2022-12-03T07:45:17.378Z,1.6
2022-12-03T07:47:24.087Z,1.6
2022-12-03T07:53:35.328Z,1.6
2022-12-03T07:55:39.092Z,1.5
2022-12-03T07:57:42.886Z,1.6
2022-12-03T07:59:46.658Z,1.5
2022-12-03T08:01:53.401Z,1.5
2022-12-03T08:03:57.117Z,1.5
2022-12-03T08:08:30.722Z,1.6
2022-12-03T08:10:34.502Z,1.6
2022-12-03T08:12:38.239Z,1.5
2022-12-03T08:14:44.990Z,1.5
2022-12-03T08:16:48.981Z,1.5
2022-12-03T08:18:52.580Z,1.5
2022-12-03T08:20:56.353Z,1.5
2022-12-03T08:23:00.120Z,1.6
2022-12-03T08:25:03.922Z,1.5
2022-12-03T08:27:07.667Z,1.5
2022-12-03T08:29:14.389Z,1.5
2022-12-03T08:31:18.197Z,1.5
2022-12-03T08:33:21.922Z,1.5
2022-12-03T08:35:25.699Z,1.5
2022-12-03T08:37:29.377Z,1.5
2022-12-03T08:39:33.183Z,1.4
2022-12-03T08:41:36.924Z,1.4
2022-12-03T08:43:43.623Z,1.4
2022-12-03T08:45:47.420Z,1.4
2022-12-03T08:47:51.081Z,1.3
2022-12-03T08:49:54.948Z,1.3
2022-12-03T08:51:58.688Z,1.3
2022-12-03T08:54:02.597Z,1.3
2022-12-03T08:56:06.214Z,1.3
2022-12-03T08:58:12.937Z,1.4
2022-12-03T09:00:16.703Z,1.4
2022-12-03T09:02:20.476Z,1.4
2022-12-03T09:03:23.739Z,1.4
2022-12-03T09:05:27.488Z,1.4
2022-12-03T09:07:31.215Z,1.4
2022-12-03T09:09:34.947Z,1.4
2022-12-03T09:17:52.761Z,1.4
2022-12-03T09:19:56.496Z,1.4
2022-12-03T09:22:00.295Z,1.4
2022-12-03T09:24:04.065Z,1.4
2022-12-03T09:26:10.770Z,1.4
2022-12-03T09:28:14.537Z,1.4
2022-12-03T09:30:18.293Z,1.4
2022-12-03T09:32:22.162Z,1.3
2022-12-03T09:34:25.833Z,1.3
2022-12-03T09:36:29.589Z,1.3
2022-12-03T09:38:33.391Z,1.3
2022-12-03T09:40:40.096Z,1.2
2022-12-03T09:42:43.876Z,1.2
2022-12-03T09:44:47.636Z,1.2
2022-12-03T09:46:51.392Z,1.3
2022-12-03T09:48:55.136Z,1.3
2022-12-03T09:53:04.190Z,1.3
2022-12-03T09:55:10.820Z,1.3
2022-12-03T09:57:14.606Z,1.3
2022-12-03T09:59:18.360Z,1.3
2022-12-03T10:00:21.694Z,1.3
2022-12-03T10:02:25.489Z,1.3
2022-12-03T10:04:29.343Z,1.2
2022-12-03T10:06:33.055Z,1.2
2022-12-03T10:08:39.711Z,1.2
2022-12-03T10:10:43.516Z,1.2
2022-12-03T10:12:47.255Z,1.2
2022-12-03T10:14:51.082Z,1.2
2022-12-03T10:16:54.777Z,1.2
2022-12-03T10:18:58.478Z,1.1
2022-12-03T10:21:02.254Z,1.1
2022-12-03T10:23:08.951Z,1.1
2022-12-03T10:25:12.608Z,1.1
2022-12-03T10:27:16.307Z,1.1
2022-12-03T10:29:19.941Z,1.1
2022-12-03T10:31:23.683Z,1.1
2022-12-03T10:35:31.177Z,1.1
2022-12-03T10:37:37.869Z,1.2
2022-12-03T10:39:41.618Z,1.1
2022-12-03T10:41:45.419Z,1.1
2022-12-03T10:43:49.195Z,1.1
2022-12-03T10:45:53.005Z,1.1
2022-12-03T10:47:56.748Z,1.1
2022-12-03T10:50:00.487Z,1.1
2022-12-03T10:52:07.081Z,1.1
2022-12-03T10:54:10.836Z,1.2
2022-12-03T10:56:14.577Z,1.2
2022-12-03T10:57:19.598Z,1.1
2022-12-03T11:01:25.633Z,1.1
2022-12-03T11:05:35.950Z,1.2
2022-12-03T11:07:39.735Z,1.3
2022-12-03T11:09:43.480Z,1.3
2022-12-03T11:11:47.224Z,1.2
2022-12-03T11:13:50.989Z,1.2
2022-12-03T11:15:54.880Z,1.3
2022-12-03T11:17:58.536Z,1.3
2022-12-03T11:20:05.280Z,1.2
2022-12-03T11:24:12.800Z,1.1
2022-12-03T11:26:19.204Z,1.2
2022-12-03T11:28:20.375Z,1.2
2022-12-03T11:30:24.098Z,1.1
2022-12-03T11:32:31.874Z,1.1
2022-12-03T11:34:34.512Z,1
2022-12-03T11:37:00.785Z,1
2022-12-03T11:38:45.015Z,1
2022-12-03T11:40:45.789Z,1
2022-12-03T11:42:49.576Z,1
2022-12-03T11:44:53.364Z,1.1
2022-12-03T11:46:57.198Z,1.1
2022-12-03T11:51:07.385Z,0.9
2022-12-03T11:55:40.762Z,0.9
2022-12-03T11:57:44.440Z,0.9
2022-12-03T11:59:48.357Z,1
2022-12-03T12:01:54.688Z,1
2022-12-03T12:08:06.060Z,1
2022-12-03T12:14:17.140Z,0.9
2022-12-03T12:16:23.721Z,0.7
2022-12-03T12:18:27.404Z,0.7
2022-12-03T12:20:31.173Z,0.8
2022-12-03T12:24:38.709Z,0.8
2022-12-03T12:26:42.440Z,0.7
2022-12-03T12:28:46.122Z,0.6
2022-12-03T12:30:52.684Z,0.6
2022-12-03T12:32:56.356Z,0.6
2022-12-03T12:35:00.009Z,0.6
2022-12-03T12:45:21.530Z,0.6
2022-12-03T12:47:25.242Z,0.7
2022-12-03T12:49:28.828Z,0.7
2022-12-03T12:50:32.189Z,0.7
2022-12-03T12:52:35.936Z,0.7
2022-12-03T12:54:39.677Z,0.6
2022-12-03T12:56:43.444Z,0.6
2022-12-03T12:58:50.114Z,0.7
2022-12-03T13:00:53.846Z,0.6
2022-12-03T13:02:57.620Z,0.6
2022-12-03T13:05:01.262Z,0.6
2022-12-03T13:07:05.029Z,0.7
2022-12-03T13:13:19.061Z,0.7
2022-12-03T13:15:22.734Z,0.7
2022-12-03T13:17:26.484Z,0.7
2022-12-03T13:19:30.137Z,0.7
2022-12-03T13:21:33.902Z,0.7
2022-12-03T13:23:37.628Z,0.8
2022-12-03T13:26:01.735Z,0.8
2022-12-03T13:27:47.948Z,0.9
2022-12-03T13:29:51.774Z,0.9
2022-12-03T13:31:55.324Z,0.8
2022-12-03T13:33:59.023Z,0.8
2022-12-03T13:36:02.698Z,0.7
2022-12-03T13:38:06.333Z,0.8
2022-12-03T13:40:10.170Z,0.7
2022-12-03T13:42:16.739Z,0.7
2022-12-03T13:44:20.421Z,0.7
2022-12-03T13:46:24.155Z,0.7
2022-12-03T13:49:30.941Z,0.8
2022-12-03T13:51:34.615Z,0.8
2022-12-03T13:53:38.330Z,0.9
2022-12-03T13:55:44.903Z,0.9
2022-12-03T13:57:48.596Z,0.8
2022-12-03T13:59:52.574Z,0.9
2022-12-03T14:01:56.170Z,0.9
2022-12-03T14:03:59.825Z,0.8
2022-12-03T14:06:03.476Z,0.8
2022-12-03T14:08:07.329Z,0.8
2022-12-03T14:10:13.694Z,0.8
2022-12-03T14:12:17.420Z,0.8
2022-12-03T14:14:21.085Z,0.8
2022-12-03T14:16:24.793Z,0.7
2022-12-03T14:18:28.497Z,0.7
2022-12-03T14:20:32.235Z,0.7
2022-12-03T14:22:36.005Z,0.7
2022-12-03T14:24:42.455Z,0.6
2022-12-03T14:26:46.225Z,0.6
2022-12-03T14:28:49.973Z,0.6
2022-12-03T14:30:53.709Z,0.6
2022-12-03T14:32:57.348Z,0.7
2022-12-03T14:35:03.964Z,0.6
2022-12-03T14:41:15.197Z,0.6
2022-12-03T14:43:18.849Z,0.6
2022-12-03T14:44:22.166Z,0.6
2022-12-03T14:46:25.883Z,0.6
2022-12-03T14:50:33.319Z,0.6
2022-12-03T14:52:39.870Z,0.6
2022-12-03T14:54:43.647Z,0.6
2022-12-03T14:56:47.381Z,0.5
2022-12-03T14:58:51.133Z,0.4
2022-12-03T15:00:54.840Z,0.5
2022-12-03T15:02:58.602Z,0.5
2022-12-03T15:05:02.191Z,0.5
2022-12-03T15:07:08.848Z,0.5
2022-12-03T15:09:12.605Z,0.5
2022-12-03T15:11:16.348Z,0.5
2022-12-03T15:13:20.067Z,0.4
2022-12-03T15:15:23.713Z,0.4
2022-12-03T15:17:31.745Z,0.5
2022-12-03T15:19:31.201Z,0.5
2022-12-03T15:21:37.716Z,0.4
2022-12-03T15:25:45.067Z,0.4
2022-12-03T15:27:48.757Z,0.4
2022-12-03T15:29:52.923Z,0.4
2022-12-03T15:31:56.295Z,0.4
2022-12-03T15:33:59.857Z,0.4
2022-12-03T15:36:06.421Z,0.5
2022-12-03T15:38:10.142Z,0.4
2022-12-03T15:40:13.870Z,0.4
2022-12-03T15:42:43.571Z,0.3
2022-12-03T15:44:47.306Z,0.4
2022-12-03T15:46:51.046Z,0.4
2022-12-03T15:48:59.178Z,0.4
2022-12-03T15:51:02.935Z,0.4
2022-12-03T15:53:06.655Z,0.4
2022-12-03T15:55:10.421Z,0.4
2022-12-03T15:57:14.121Z,0.4
2022-12-03T15:59:17.785Z,0.4
2022-12-03T16:01:21.542Z,0.4
2022-12-03T16:03:28.027Z,0.4
2022-12-03T16:05:31.636Z,0.5
2022-12-03T16:07:35.490Z,0.4
2022-12-03T16:09:39.099Z,0.4
2022-12-03T16:11:42.733Z,0.4
2022-12-03T16:13:46.460Z,0.4
2022-12-03T16:15:50.283Z,0.3
2022-12-03T16:17:56.697Z,0.3
2022-12-03T16:20:00.349Z,0.3
2022-12-03T16:22:04.085Z,0.4
2022-12-03T16:24:07.829Z,0.3
2022-12-03T16:26:11.586Z,0.3
2022-12-03T16:28:15.312Z,0.3
2022-12-03T16:30:18.967Z,0.3
2022-12-03T16:32:25.550Z,0.3
2022-12-03T16:34:29.180Z,0.3
2022-12-03T16:36:32.844Z,0.4
2022-12-03T16:37:36.190Z,0.4
2022-12-03T16:39:39.940Z,0.4
2022-12-03T16:43:47.419Z,0.4
2022-12-03T16:45:54.188Z,0.4
2022-12-03T16:47:57.875Z,0.4
2022-12-03T16:50:01.811Z,0.4
2022-12-03T16:52:05.356Z,0.4
2022-12-03T16:54:09.097Z,0.3
2022-12-03T16:56:12.751Z,0.3
2022-12-03T16:58:16.412Z,0.3
2022-12-03T17:00:22.890Z,0.2
2022-12-03T17:02:26.651Z,0.2
2022-12-03T17:04:30.361Z,0.3
2022-12-03T17:06:34.104Z,0.4
2022-12-03T17:08:37.760Z,0.3
2022-12-03T17:10:41.484Z,0.3
2022-12-03T17:13:08.408Z,0.4
2022-12-03T17:18:58.974Z,0.4
2022-12-03T17:25:10.007Z,0.3
2022-12-03T17:27:13.754Z,0.3
2022-12-03T17:33:27.836Z,0.4
2022-12-03T17:34:31.159Z,0.4
2022-12-03T17:36:34.831Z,0.4
2022-12-03T17:38:39.392Z,0.4
2022-12-03T17:40:42.286Z,0.3
2022-12-03T17:42:48.731Z,0.3
2022-12-03T17:44:52.487Z,0.3
2022-12-03T17:46:56.324Z,0.3
2022-12-03T17:49:00.006Z,0.4
2022-12-03T17:51:03.717Z,0.3
2022-12-03T17:53:07.488Z,0.3
2022-12-03T17:55:16.265Z,0.3
2022-12-03T17:57:17.882Z,0.3
2022-12-03T17:59:21.583Z,0.3
2022-12-03T18:01:25.410Z,0.3
2022-12-03T18:03:29.178Z,0.3
2022-12-03T18:05:32.808Z,0.3
2022-12-03T18:07:36.640Z,0.4
2022-12-03T18:09:40.311Z,0.3
2022-12-03T18:13:50.662Z,0.3
2022-12-03T18:15:54.471Z,0.3
2022-12-03T18:17:58.134Z,0.3
2022-12-03T18:20:01.922Z,0.4
2022-12-03T18:24:09.347Z,0.3
2022-12-03T18:28:19.732Z,0.3
2022-12-03T18:30:23.504Z,0.3
2022-12-03T18:33:30.522Z,0.3
2022-12-03T18:35:34.302Z,0.1
2022-12-03T18:37:38.008Z,0.2
2022-12-03T18:41:48.421Z,0.3
2022-12-03T18:47:59.719Z,0.2
2022-12-03T18:50:03.378Z,0.3
2022-12-03T18:52:07.102Z,0.3
2022-12-03T18:54:13.781Z,0.2
2022-12-03T18:56:17.493Z,0.2
2022-12-03T18:58:21.235Z,0.2
2022-12-03T19:00:25.020Z,0.2
2022-12-03T19:03:03.883Z,0.3
2022-12-03T19:04:32.433Z,0.3
2022-12-03T19:16:57.752Z,0.2
2022-12-03T19:19:01.514Z,0.2
2022-12-03T19:21:05.223Z,0.2
2022-12-03T19:23:11.918Z,0.2
2022-12-03T19:25:15.643Z,0.2
2022-12-03T19:27:19.280Z,0.2
2022-12-03T19:29:49.029Z,0.3
2022-12-03T19:31:52.822Z,0.2
2022-12-03T19:38:06.868Z,0.1
2022-12-03T19:40:10.616Z,0.1
2022-12-03T19:42:14.312Z,0.1
2022-12-03T19:44:18.063Z,0.2
2022-12-03T19:46:21.868Z,0.2
2022-12-03T19:48:25.512Z,0.1
2022-12-03T20:00:50.755Z,0.2
2022-12-03T20:02:54.542Z,0.1
2022-12-03T20:05:01.162Z,0.2
2022-12-03T20:07:04.888Z,0.1
2022-12-03T20:09:08.633Z,0.1
2022-12-03T20:11:12.346Z,0.2
2022-12-03T20:13:16.053Z,0.1
2022-12-03T20:15:19.773Z,0.1
2022-12-03T20:17:23.528Z,0.2
2022-12-03T20:19:30.170Z,0
2022-12-03T20:21:33.920Z,0
2022-12-03T20:23:37.653Z,0
2022-12-03T20:24:40.940Z,0
2022-12-03T20:28:48.407Z,0
2022-12-03T20:30:52.122Z,0
2022-12-03T20:32:58.784Z,0.1
2022-12-03T20:35:02.503Z,0
2022-12-03T20:37:06.218Z,0.1
2022-12-03T20:39:09.974Z,0.1
2022-12-03T20:41:14.478Z,0
2022-12-03T20:43:18.196Z,0
2022-12-03T20:45:21.929Z,0
2022-12-03T20:47:28.604Z,0
2022-12-03T20:49:32.347Z,-0.1
2022-12-03T20:53:39.796Z,0
2022-12-03T20:55:43.516Z,-0.1
2022-12-03T20:57:47.243Z,-0.1
2022-12-03T20:59:50.964Z,-0.1
2022-12-03T21:01:57.727Z,-0.1
2022-12-03T21:04:01.214Z,0
2022-12-03T21:06:04.969Z,0
2022-12-03T21:08:08.797Z,0
2022-12-03T21:10:12.432Z,0
2022-12-03T21:12:16.156Z,0
2022-12-03T21:14:19.829Z,0
2022-12-03T21:16:52.146Z,0
2022-12-03T21:18:30.130Z,-0.1
2022-12-03T21:20:33.830Z,-0.2
2022-12-03T21:21:37.099Z,-0.1
2022-12-03T21:23:40.756Z,-0.1
2022-12-03T21:25:44.496Z,-0.1
2022-12-03T21:27:48.221Z,-0.1
2022-12-03T21:29:55.138Z,-0.2
2022-12-03T21:31:58.573Z,-0.2
2022-12-03T21:34:02.281Z,-0.1
2022-12-03T21:38:09.723Z,-0.1
2022-12-03T21:40:13.431Z,-0.2
2022-12-03T21:42:33.675Z,-0.2
2022-12-03T21:44:25.162Z,-0.2
2022-12-03T21:48:32.541Z,-0.2
2022-12-03T21:50:36.262Z,-0.2
2022-12-03T21:52:39.973Z,-0.1
2022-12-03T21:54:43.665Z,-0.1
2022-12-03T21:58:54.009Z,0
2022-12-03T22:00:57.803Z,0
2022-12-03T22:03:01.428Z,0
2022-12-03T22:05:05.121Z,0
2022-12-03T22:07:08.844Z,-0.1
2022-12-03T22:09:12.573Z,-0.1
2022-12-03T22:11:16.256Z,0
2022-12-03T22:15:26.618Z,-0.1
2022-12-03T22:17:30.304Z,-0.1
2022-12-03T22:18:33.646Z,0
2022-12-03T22:20:37.335Z,0
2022-12-03T22:22:41.062Z,0.1
2022-12-03T22:24:44.755Z,0
2022-12-03T22:30:58.906Z,0
2022-12-03T22:33:02.581Z,0
2022-12-03T22:35:06.281Z,0
2022-12-03T22:37:09.988Z,0
2022-12-03T22:39:13.705Z,0
2022-12-03T22:41:20.330Z,0
2022-12-03T22:43:24.059Z,0
2022-12-03T22:45:27.805Z,0.1
2022-12-03T22:47:31.491Z,0.1
2022-12-03T22:49:35.213Z,0
2022-12-03T22:51:38.927Z,0
2022-12-03T22:53:42.648Z,0
2022-12-03T22:55:49.275Z,0
2022-12-03T22:57:53.011Z,0
2022-12-03T22:59:57.020Z,0.1
2022-12-03T23:04:04.377Z,0
2022-12-03T23:06:07.929Z,0
2022-12-03T23:08:11.685Z,0.2
2022-12-03T23:10:18.256Z,0.1
2022-12-03T23:12:21.995Z,0
2022-12-03T23:14:25.695Z,0.1
2022-12-03T23:16:55.442Z,0.1
2022-12-03T23:18:59.203Z,0.1
2022-12-03T23:21:02.893Z,0.1
2022-12-03T23:23:09.548Z,0.1
2022-12-03T23:25:13.278Z,0.1
2022-12-03T23:31:24.507Z,0.1
2022-12-03T23:33:28.167Z,0
2022-12-03T23:35:32.048Z,0.1
2022-12-03T23:37:38.547Z,0.1
2022-12-03T23:39:42.282Z,0.1
2022-12-03T23:41:46.001Z,0.1
2022-12-03T23:43:49.719Z,0.1
2022-12-03T23:45:53.483Z,0.1
2022-12-03T23:47:58.468Z,0.1
2022-12-03T23:50:00.928Z,0.1
2022-12-03T23:52:07.552Z,0
2022-12-03T23:54:11.301Z,0.1
2022-12-03T23:56:15.024Z,0
2022-12-03T23:58:18.753Z,0.1
